createdAt,value
2023-04-04T00:00:14.279Z,2.50
2023-04-04T00:02:41.045Z,2.53
2023-04-04T00:05:08.583Z,3.00
2023-04-04T00:07:34.972Z,2.60
2023-04-04T00:10:01.426Z,3.45
2023-04-04T00:12:29.814Z,2.92
2023-04-04T00:14:57.506Z,3.00
2023-04-04T00:17:23.991Z,3.08
2023-04-04T00:19:50.517Z,2.90
2023-04-04T00:22:18.104Z,2.60
2023-04-04T00:24:44.453Z,3.28
2023-04-04T00:27:10.797Z,3.38
2023-04-04T00:29:37.370Z,2.95
2023-04-04T00:32:03.949Z,4.57
2023-04-04T00:34:30.299Z,3.47
2023-04-04T00:36:56.622Z,3.10
2023-04-04T00:39:23.786Z,3.30
2023-04-04T00:41:50.476Z,3.92
2023-04-04T00:44:16.969Z,3.05
2023-04-04T00:46:43.448Z,3.45
2023-04-04T00:49:10.019Z,3.08
2023-04-04T00:51:36.366Z,3.20
2023-04-04T00:54:02.943Z,3.08
2023-04-04T00:56:30.632Z,3.20
2023-04-04T00:58:57.188Z,3.40
2023-04-04T01:01:25.786Z,3.42
2023-04-04T01:03:52.772Z,3.75
2023-04-04T01:06:19.738Z,3.78
2023-04-04T01:08:46.674Z,3.50
2023-04-04T01:11:13.243Z,2.75
2023-04-04T01:13:39.686Z,3.33
2023-04-04T01:16:07.906Z,3.33
2023-04-04T01:18:35.418Z,3.55
2023-04-04T01:21:03.281Z,3.70
2023-04-04T01:23:56.006Z,3.72
2023-04-04T01:26:23.683Z,3.55
2023-04-04T01:28:51.663Z,3.15
2023-04-04T01:31:21.203Z,3.85
2023-04-04T01:33:53.920Z,3.58
2023-04-04T01:36:28.261Z,3.95
2023-04-04T01:39:08.253Z,3.70
2023-04-04T01:41:35.431Z,3.47
2023-04-04T01:44:03.124Z,3.75
2023-04-04T01:46:29.947Z,3.63
2023-04-04T01:48:56.343Z,3.80
2023-04-04T01:51:28.981Z,4.07
2023-04-04T01:53:55.839Z,3.90
2023-04-04T01:56:22.951Z,3.88
2023-04-04T01:58:49.499Z,3.70
2023-04-04T02:01:15.938Z,3.88
2023-04-04T02:03:42.580Z,3.38
2023-04-04T02:06:09.530Z,3.60
2023-04-04T02:08:36.398Z,3.90
2023-04-04T02:11:03.595Z,3.67
2023-04-04T02:13:30.006Z,3.88
2023-04-04T02:15:58.864Z,4.22
2023-04-04T02:18:25.949Z,4.40
2023-04-04T02:20:57.341Z,4.40
2023-04-04T02:23:23.640Z,3.70
2023-04-04T02:25:50.885Z,4.28
2023-04-04T02:28:17.603Z,4.28
2023-04-04T02:30:44.037Z,4.10
2023-04-04T02:33:12.031Z,3.72
2023-04-04T02:35:38.908Z,3.95
2023-04-04T02:38:05.945Z,4.55
2023-04-04T02:40:42.172Z,3.80
2023-04-04T02:43:08.986Z,4.05
2023-04-04T02:45:36.114Z,4.28
2023-04-04T02:48:11.503Z,4.30
2023-04-04T02:50:43.229Z,4.93
2023-04-04T02:53:12.518Z,4.65
2023-04-04T02:55:39.007Z,4.07
2023-04-04T02:58:05.555Z,4.00
2023-04-04T03:00:31.855Z,4.15
2023-04-04T03:02:58.511Z,3.90
2023-04-04T03:05:34.649Z,4.47
2023-04-04T03:08:02.051Z,4.60
2023-04-04T03:10:32.156Z,4.40
2023-04-04T03:12:59.065Z,4.60
2023-04-04T03:15:27.617Z,4.55
2023-04-04T03:17:54.125Z,4.85
2023-04-04T03:20:24.387Z,4.47
2023-04-04T03:22:50.751Z,4.30
2023-04-04T03:25:17.122Z,4.30
2023-04-04T03:27:43.742Z,4.93
2023-04-04T03:30:13.935Z,5.25
2023-04-04T03:32:40.437Z,4.53
2023-04-04T03:35:07.138Z,4.10
2023-04-04T03:37:33.581Z,4.78
2023-04-04T03:40:00.004Z,5.47
2023-04-04T03:42:26.956Z,4.88
2023-04-04T03:44:53.970Z,5.00
2023-04-04T03:47:28.462Z,4.60
2023-04-04T03:49:57.199Z,5.22
2023-04-04T03:52:24.421Z,4.97
2023-04-04T03:54:52.038Z,6.25
2023-04-04T03:57:18.638Z,5.10
2023-04-04T03:59:45.079Z,4.85
2023-04-04T04:02:11.678Z,5.25
2023-04-04T04:04:38.244Z,4.95
2023-04-04T04:07:04.641Z,4.85
2023-04-04T04:09:31.331Z,4.90
2023-04-04T04:11:57.683Z,4.72
2023-04-04T04:14:24.051Z,5.03
2023-04-04T04:16:50.547Z,5.47
2023-04-04T04:19:21.319Z,4.78
2023-04-04T04:21:48.082Z,5.68
2023-04-04T04:24:14.624Z,6.22
2023-04-04T04:26:41.446Z,4.70
2023-04-04T04:29:08.148Z,5.28
2023-04-04T04:31:34.765Z,5.25
2023-04-04T04:34:01.423Z,5.50
2023-04-04T04:36:30.688Z,5.40
2023-04-04T04:39:12.588Z,5.32
2023-04-04T04:41:50.372Z,5.88
2023-04-04T04:44:18.214Z,4.95
2023-04-04T04:46:44.750Z,5.43
2023-04-04T04:49:15.138Z,5.85
2023-04-04T04:51:43.529Z,5.30
2023-04-04T04:54:12.103Z,5.68
2023-04-04T04:56:39.759Z,5.57
2023-04-04T04:59:11.340Z,5.22
2023-04-04T05:01:40.537Z,5.35
2023-04-04T05:04:08.156Z,5.88
2023-04-04T05:06:53.786Z,5.78
2023-04-04T05:09:21.109Z,6.18
2023-04-04T05:11:47.739Z,5.07
2023-04-04T05:14:15.193Z,5.90
2023-04-04T05:16:50.648Z,5.60
2023-04-04T05:19:17.872Z,5.30
2023-04-04T05:21:48.867Z,5.68
2023-04-04T05:24:27.540Z,6.00
2023-04-04T05:26:54.323Z,6.07
2023-04-04T05:29:20.721Z,5.57
2023-04-04T05:31:48.541Z,5.82
2023-04-04T05:34:19.064Z,5.85
2023-04-04T05:36:47.475Z,5.50
2023-04-04T05:39:14.455Z,6.05
2023-04-04T05:41:50.095Z,5.55
2023-04-04T05:44:18.373Z,5.70
2023-04-04T05:46:44.768Z,5.88
2023-04-04T05:49:12.087Z,5.40
2023-04-04T05:51:43.357Z,5.95
2023-04-04T05:54:15.231Z,5.40
2023-04-04T05:56:42.864Z,5.45
2023-04-04T05:59:20.010Z,6.30
2023-04-04T06:01:57.734Z,6.55
2023-04-04T06:04:24.161Z,5.93
2023-04-04T06:06:52.540Z,6.20
2023-04-04T06:09:21.218Z,6.40
2023-04-04T06:11:47.678Z,6.35
2023-04-04T06:14:15.255Z,6.47
2023-04-04T06:16:42.956Z,6.63
2023-04-04T06:19:09.286Z,6.22
2023-04-04T06:21:35.674Z,5.50
2023-04-04T06:24:02.788Z,6.03
2023-04-04T06:26:29.181Z,6.38
2023-04-04T06:28:56.566Z,6.53
2023-04-04T06:31:32.507Z,6.45
2023-04-04T06:34:05.936Z,5.70
2023-04-04T06:36:37.608Z,5.57
2023-04-04T06:39:04.844Z,6.35
2023-04-04T06:41:31.677Z,5.30
2023-04-04T06:43:58.251Z,5.78
2023-04-04T06:46:27.000Z,6.20
2023-04-04T06:48:54.821Z,5.55
2023-04-04T06:51:21.782Z,5.32
2023-04-04T06:53:48.782Z,5.30
2023-04-04T06:56:15.151Z,5.10
2023-04-04T06:58:41.894Z,5.10
2023-04-04T07:01:08.290Z,5.55
2023-04-04T07:03:34.678Z,6.07
2023-04-04T07:06:04.528Z,5.82
2023-04-04T07:08:36.277Z,5.40
2023-04-04T07:11:03.596Z,5.22
2023-04-04T07:13:29.987Z,4.75
2023-04-04T07:15:56.362Z,5.55
2023-04-04T07:18:22.637Z,4.88
2023-04-04T07:20:49.040Z,5.00
2023-04-04T07:23:15.645Z,4.40
2023-04-04T07:25:43.951Z,5.28
2023-04-04T07:28:13.290Z,5.05
2023-04-04T07:30:40.004Z,4.65
2023-04-04T07:33:06.952Z,4.50
2023-04-04T07:35:34.398Z,5.50
2023-04-04T07:38:00.832Z,5.18
2023-04-04T07:40:27.232Z,5.07
2023-04-04T07:42:54.558Z,4.00
2023-04-04T07:45:22.113Z,4.50
2023-04-04T07:47:48.507Z,4.57
2023-04-04T07:50:16.089Z,4.55
2023-04-04T07:52:42.822Z,3.78
2023-04-04T07:55:09.321Z,4.85
2023-04-04T07:57:39.002Z,3.92
2023-04-04T08:00:06.753Z,3.53
2023-04-04T08:02:40.229Z,4.43
2023-04-04T08:05:07.057Z,4.32
2023-04-04T08:07:33.584Z,4.72
2023-04-04T08:09:59.961Z,4.45
2023-04-04T08:12:26.291Z,4.10
2023-04-04T08:14:52.869Z,4.40
2023-04-04T08:17:20.480Z,3.67
2023-04-04T08:19:46.823Z,3.70
2023-04-04T08:22:13.709Z,3.67
2023-04-04T08:24:40.398Z,3.13
2023-04-04T08:27:06.849Z,8.18
2023-04-04T08:29:34.236Z,4.82
2023-04-04T08:32:00.685Z,4.28
2023-04-04T08:34:27.133Z,2.92
2023-04-04T08:36:53.623Z,3.20
2023-04-04T08:39:20.001Z,3.55
2023-04-04T08:41:46.443Z,3.15
2023-04-04T08:44:17.245Z,3.90
2023-04-04T08:46:45.425Z,3.35
2023-04-04T08:49:13.051Z,3.88
2023-04-04T08:51:40.214Z,2.45
2023-04-04T08:54:07.328Z,2.17
2023-04-04T08:56:35.211Z,2.65
2023-04-04T08:59:01.754Z,2.92
2023-04-04T09:01:29.794Z,2.50
2023-04-04T09:04:00.364Z,1.90
2023-04-04T09:06:27.634Z,1.80
2023-04-04T09:08:54.605Z,1.88
2023-04-04T09:11:23.339Z,2.05
2023-04-04T09:13:50.791Z,2.75
2023-04-04T09:16:17.435Z,2.20
2023-04-04T09:18:44.072Z,2.45
2023-04-04T09:21:11.903Z,2.35
2023-04-04T09:23:38.682Z,2.67
2023-04-04T09:26:05.744Z,2.50
2023-04-04T09:28:32.778Z,2.50
2023-04-04T09:31:03.111Z,2.40
2023-04-04T09:33:32.206Z,3.45
2023-04-04T09:35:59.656Z,3.08
2023-04-04T09:38:26.858Z,2.80
2023-04-04T09:40:54.525Z,3.03
2023-04-04T09:43:22.353Z,2.42
2023-04-04T09:45:49.343Z,2.70
2023-04-04T09:48:27.129Z,2.55
2023-04-04T09:50:53.676Z,2.97
2023-04-04T09:53:20.101Z,2.55
2023-04-04T09:55:50.551Z,2.22
2023-04-04T09:58:18.106Z,2.50
2023-04-04T10:00:48.437Z,2.30
2023-04-04T10:03:15.323Z,2.72
2023-04-04T10:05:41.786Z,2.50
2023-04-04T10:08:15.633Z,2.75
2023-04-04T10:11:06.605Z,2.80
2023-04-04T10:13:40.575Z,2.60
2023-04-04T10:16:07.415Z,2.53
2023-04-04T10:18:34.683Z,2.53
2023-04-04T10:21:15.267Z,2.47
2023-04-04T10:23:42.840Z,2.80
2023-04-04T10:26:09.908Z,2.90
2023-04-04T10:28:36.950Z,2.67
2023-04-04T10:31:09.046Z,2.97
2023-04-04T10:33:54.288Z,3.13
2023-04-04T10:36:24.816Z,2.75
2023-04-04T10:39:13.277Z,2.05
2023-04-04T10:41:40.344Z,2.30
2023-04-04T10:44:12.280Z,2.28
2023-04-04T10:46:39.327Z,2.93
2023-04-04T10:49:05.876Z,2.70
2023-04-04T10:51:35.359Z,3.60
2023-04-04T10:54:06.736Z,2.28
2023-04-04T10:56:34.228Z,2.65
2023-04-04T10:59:11.726Z,2.70
2023-04-04T11:01:54.459Z,2.70
2023-04-04T11:04:22.332Z,2.58
2023-04-04T11:07:05.030Z,3.25
2023-04-04T11:09:47.507Z,2.78
2023-04-04T11:12:20.244Z,2.38
2023-04-04T11:17:14.631Z,2.15
2023-04-04T11:19:58.048Z,3.05
2023-04-04T11:22:24.429Z,2.58
2023-04-04T11:24:58.592Z,2.92
2023-04-04T11:27:24.909Z,2.72
2023-04-04T11:29:54.510Z,3.03
2023-04-04T11:32:27.444Z,2.65
2023-04-04T11:34:56.557Z,2.70
2023-04-04T11:37:24.156Z,2.60
2023-04-04T11:39:56.498Z,2.50
2023-04-04T11:42:23.065Z,3.03
2023-04-04T11:44:52.200Z,2.22
2023-04-04T11:47:19.913Z,2.78
2023-04-04T11:49:46.967Z,3.55
2023-04-04T11:52:14.174Z,3.00
2023-04-04T11:54:41.549Z,2.80
2023-04-04T11:57:18.012Z,3.00
2023-04-04T11:59:45.596Z,3.50
2023-04-04T12:02:12.896Z,2.90
2023-04-04T12:04:42.832Z,2.80
2023-04-04T12:07:10.399Z,3.05
2023-04-04T12:09:37.243Z,3.17
2023-04-04T12:12:03.646Z,3.15
2023-04-04T12:14:32.216Z,2.92
2023-04-04T12:16:59.688Z,2.45
2023-04-04T12:19:28.034Z,2.85
2023-04-04T12:21:54.760Z,2.80
2023-04-04T12:24:21.616Z,2.53
2023-04-04T12:26:51.467Z,2.97
2023-04-04T12:29:19.416Z,3.13
2023-04-04T12:31:46.949Z,3.00
2023-04-04T12:34:16.832Z,2.00
2023-04-04T12:36:43.328Z,2.42
2023-04-04T12:39:12.053Z,2.47
2023-04-04T12:42:08.372Z,2.42
2023-04-04T12:44:35.836Z,2.03
2023-04-04T12:47:06.386Z,2.70
2023-04-04T12:49:34.596Z,2.78
2023-04-04T12:52:04.640Z,2.63
2023-04-04T12:54:32.277Z,2.95
2023-04-04T12:56:59.691Z,3.03
2023-04-04T12:59:29.586Z,2.65
2023-04-04T13:01:56.123Z,4.22
2023-04-04T13:04:24.082Z,3.00
2023-04-04T13:06:50.900Z,2.78
2023-04-04T13:09:18.963Z,3.10
2023-04-04T13:11:59.031Z,3.25
2023-04-04T13:14:26.142Z,3.90
2023-04-04T13:17:03.247Z,2.80
2023-04-04T13:19:29.638Z,3.15
2023-04-04T13:21:55.983Z,3.17
2023-04-04T13:24:22.361Z,3.30
2023-04-04T13:26:48.697Z,3.50
2023-04-04T13:29:14.996Z,3.05
2023-04-04T13:31:41.697Z,3.10
2023-04-04T13:34:08.039Z,3.00
2023-04-04T13:36:34.466Z,3.33
2023-04-04T13:39:01.085Z,3.00
2023-04-04T13:41:27.466Z,2.65
2023-04-04T13:43:53.862Z,2.78
2023-04-04T13:46:20.461Z,2.72
2023-04-04T13:48:46.869Z,3.25
2023-04-04T13:51:13.195Z,3.13
2023-04-04T13:53:39.539Z,3.38
2023-04-04T13:58:35.481Z,3.05
2023-04-04T14:01:06.780Z,3.65
2023-04-04T14:03:33.312Z,4.00
2023-04-04T14:06:06.424Z,3.38
2023-04-04T14:08:36.937Z,3.40
2023-04-04T14:11:03.425Z,3.10
2023-04-04T14:13:32.509Z,3.08
2023-04-04T14:15:58.910Z,3.40
2023-04-04T14:18:25.600Z,3.50
2023-04-04T14:20:51.902Z,3.42
2023-04-04T14:23:18.263Z,3.05
2023-04-04T14:25:44.672Z,3.28
2023-04-04T14:28:11.305Z,3.65
2023-04-04T14:30:37.728Z,3.47
2023-04-04T14:33:04.197Z,2.60
2023-04-04T14:35:30.743Z,3.13
2023-04-04T14:37:57.195Z,3.35
2023-04-04T14:40:23.581Z,3.13
2023-04-04T14:42:49.952Z,3.35
2023-04-04T14:45:16.342Z,3.40
2023-04-04T14:47:42.862Z,3.70
2023-04-04T14:50:09.547Z,3.60
2023-04-04T14:52:36.490Z,2.75
2023-04-04T14:55:02.889Z,2.92
2023-04-04T14:57:30.004Z,3.60
2023-04-04T14:59:58.314Z,3.10
2023-04-04T15:02:24.655Z,3.22
2023-04-04T15:04:51.127Z,2.97
2023-04-04T15:07:17.760Z,3.28
2023-04-04T15:09:44.129Z,2.85
2023-04-04T15:12:10.634Z,3.47
2023-04-04T15:14:37.044Z,3.00
2023-04-04T15:17:03.431Z,2.95
2023-04-04T15:19:29.770Z,3.85
2023-04-04T15:21:57.074Z,3.47
2023-04-04T15:24:23.465Z,3.33
2023-04-04T15:26:49.797Z,3.38
2023-04-04T15:29:16.157Z,3.60
2023-04-04T15:31:42.812Z,3.63
2023-04-04T15:34:09.806Z,3.40
2023-04-04T15:36:36.467Z,3.25
2023-04-04T15:39:03.425Z,3.55
2023-04-04T15:41:29.894Z,3.05
2023-04-04T15:43:56.300Z,3.35
2023-04-04T15:46:22.630Z,3.17
2023-04-04T15:48:51.773Z,3.50
2023-04-04T15:51:18.195Z,3.45
2023-04-04T15:53:44.581Z,3.35
2023-04-04T15:56:11.237Z,3.70
2023-04-04T15:58:37.607Z,3.58
2023-04-04T16:01:04.174Z,3.20
2023-04-04T16:03:30.767Z,3.15
2023-04-04T16:05:57.198Z,3.90
2023-04-04T16:08:23.604Z,4.38
2023-04-04T16:10:50.395Z,4.13
2023-04-04T16:13:16.837Z,3.00
2023-04-04T16:15:43.247Z,4.53
2023-04-04T16:18:09.853Z,4.47
2023-04-04T16:20:37.064Z,3.72
2023-04-04T16:23:03.485Z,3.80
2023-04-04T16:25:29.848Z,4.70
2023-04-04T16:27:56.357Z,4.55
2023-04-04T16:30:22.863Z,4.40
2023-04-04T16:32:49.577Z,4.53
2023-04-04T16:35:17.109Z,4.15
2023-04-04T16:37:43.487Z,4.20
2023-04-04T16:40:10.024Z,4.65
2023-04-04T16:42:36.411Z,4.85
2023-04-04T16:45:02.894Z,4.70
2023-04-04T16:47:29.312Z,4.72
2023-04-04T16:49:56.031Z,5.13
2023-04-04T16:52:22.410Z,4.03
2023-04-04T16:54:48.815Z,5.30
2023-04-04T16:57:15.170Z,4.43
2023-04-04T16:59:41.521Z,5.25
2023-04-04T17:02:08.274Z,4.93
2023-04-04T17:04:34.802Z,5.25
2023-04-04T17:07:02.041Z,4.40
2023-04-04T17:09:28.349Z,4.50
2023-04-04T17:11:57.030Z,5.13
2023-04-04T17:14:24.659Z,4.60
2023-04-04T17:16:52.180Z,5.28
2023-04-04T17:19:18.741Z,4.57
2023-04-04T17:21:45.161Z,4.35
2023-04-04T17:24:11.560Z,4.07
2023-04-04T17:26:37.956Z,4.75
2023-04-04T17:29:04.273Z,6.10
2023-04-04T17:31:31.054Z,4.70
2023-04-04T17:33:57.446Z,4.95
2023-04-04T17:36:23.779Z,5.25
2023-04-04T17:38:50.135Z,4.50
2023-04-04T17:41:16.781Z,5.00
2023-04-04T17:43:43.149Z,4.65
2023-04-04T17:46:10.177Z,4.25
2023-04-04T17:48:36.784Z,4.80
2023-04-04T17:51:06.799Z,5.72
2023-04-04T17:53:34.690Z,5.22
2023-04-04T17:56:01.244Z,4.65
2023-04-04T17:58:27.557Z,4.72
2023-04-04T18:00:55.769Z,5.18
2023-04-04T18:03:26.359Z,4.68
2023-04-04T18:05:52.851Z,4.70
2023-04-04T18:08:19.315Z,5.10
2023-04-04T18:10:45.852Z,5.03
2023-04-04T18:13:12.305Z,5.43
2023-04-04T18:15:38.677Z,5.32
2023-04-04T18:18:06.312Z,5.15
2023-04-04T18:20:35.194Z,5.25
2023-04-04T18:23:03.066Z,5.50
2023-04-04T18:25:29.739Z,4.90
2023-04-04T18:27:56.070Z,4.97
2023-04-04T18:30:22.409Z,5.15
2023-04-04T18:32:48.821Z,4.97
2023-04-04T18:35:15.283Z,5.25
2023-04-04T18:37:41.742Z,5.20
2023-04-04T18:40:08.292Z,4.88
2023-04-04T18:42:35.158Z,5.38
2023-04-04T18:45:01.961Z,6.47
2023-04-04T18:47:28.307Z,4.47
2023-04-04T18:49:54.727Z,4.53
2023-04-04T18:52:21.144Z,4.85
2023-04-04T18:54:47.495Z,4.72
2023-04-04T18:57:14.686Z,5.00
2023-04-04T18:59:41.131Z,4.70
2023-04-04T19:02:07.506Z,5.30
2023-04-04T19:04:35.208Z,5.28
2023-04-04T19:07:04.664Z,4.90
2023-04-04T19:09:31.489Z,5.15
2023-04-04T19:11:57.997Z,5.72
2023-04-04T19:14:24.464Z,5.13
2023-04-04T19:16:50.913Z,5.40
2023-04-04T19:19:18.591Z,5.43
2023-04-04T19:21:45.336Z,5.47
2023-04-04T19:24:11.785Z,6.07
2023-04-04T19:26:38.284Z,5.57
2023-04-04T19:29:05.465Z,5.78
2023-04-04T19:31:33.062Z,6.38
2023-04-04T19:34:00.488Z,6.60
2023-04-04T19:36:27.710Z,6.07
2023-04-04T19:38:54.693Z,6.35
2023-04-04T19:41:40.730Z,5.88
2023-04-04T19:44:13.286Z,5.63
2023-04-04T19:46:39.712Z,6.47
2023-04-04T19:49:16.383Z,6.22
2023-04-04T19:51:49.389Z,5.95
2023-04-04T19:54:15.992Z,6.18
2023-04-04T19:56:45.041Z,7.18
2023-04-04T19:59:31.815Z,5.65
2023-04-04T20:02:00.924Z,5.28
2023-04-04T20:04:27.746Z,6.65
2023-04-04T20:06:54.137Z,6.15
2023-04-04T20:09:39.835Z,6.38
2023-04-04T20:12:07.168Z,6.05
2023-04-04T20:14:34.013Z,5.63
2023-04-04T20:17:00.459Z,5.63
2023-04-04T20:19:28.041Z,7.00
2023-04-04T20:21:54.632Z,6.60
2023-04-04T20:24:21.082Z,6.13
2023-04-04T20:26:59.783Z,7.05
2023-04-04T20:29:26.403Z,6.07
2023-04-04T20:32:00.478Z,6.38
2023-04-04T20:34:32.855Z,6.60
2023-04-04T20:36:59.825Z,6.18
2023-04-04T20:39:35.962Z,7.00
2023-04-04T20:42:02.440Z,6.30
2023-04-04T20:44:31.702Z,6.55
2023-04-04T20:46:58.049Z,6.22
2023-04-04T20:49:24.373Z,6.85
2023-04-04T20:51:50.684Z,6.38
2023-04-04T20:54:17.035Z,6.35
2023-04-04T20:56:47.525Z,6.40
2023-04-04T20:59:31.057Z,6.75
2023-04-04T21:02:06.458Z,6.53
2023-04-04T21:04:32.859Z,6.68
2023-04-04T21:06:59.330Z,6.30
2023-04-04T21:09:26.288Z,6.93
2023-04-04T21:11:52.656Z,6.57
2023-04-04T21:14:23.121Z,7.03
2023-04-04T21:16:49.860Z,6.80
2023-04-04T21:19:18.711Z,6.10
2023-04-04T21:21:45.197Z,7.43
2023-04-04T21:24:12.755Z,6.55
2023-04-04T21:26:40.064Z,6.97
2023-04-04T21:29:16.823Z,6.75
2023-04-04T21:31:43.561Z,6.20
2023-04-04T21:34:11.409Z,6.47
2023-04-04T21:36:37.806Z,6.72
2023-04-04T21:39:09.520Z,6.65
2023-04-04T21:41:36.112Z,6.50
2023-04-04T21:44:03.555Z,6.05
2023-04-04T21:46:32.134Z,8.18
2023-04-04T21:48:58.483Z,6.53
2023-04-04T21:51:25.041Z,6.90
2023-04-04T21:53:51.509Z,7.00
2023-04-04T21:56:18.148Z,6.65
2023-04-04T21:58:44.587Z,6.97
2023-04-04T22:01:11.199Z,6.28
2023-04-04T22:03:37.899Z,6.85
2023-04-04T22:06:04.376Z,6.47
2023-04-04T22:08:31.267Z,6.53
2023-04-04T22:10:59.907Z,6.70
2023-04-04T22:13:30.948Z,7.35
2023-04-04T22:15:58.756Z,8.10
2023-04-04T22:18:33.035Z,7.53
2023-04-04T22:21:03.196Z,6.95
2023-04-04T22:23:35.462Z,6.93
2023-04-04T22:26:05.215Z,7.47
2023-04-04T22:28:33.216Z,7.25
2023-04-04T22:31:04.638Z,6.80
2023-04-04T22:33:31.000Z,6.63
2023-04-04T22:35:59.053Z,6.95
2023-04-04T22:38:27.161Z,6.65
2023-04-04T22:40:53.925Z,7.18
2023-04-04T22:43:20.911Z,7.70
2023-04-04T22:45:47.626Z,7.38
2023-04-04T22:48:15.318Z,6.97
2023-04-04T22:50:41.965Z,6.90
2023-04-04T22:53:12.883Z,7.45
2023-04-04T22:55:39.865Z,7.30
2023-04-04T22:58:06.810Z,7.50
2023-04-04T23:00:33.424Z,6.93
2023-04-04T23:03:02.003Z,7.75
2023-04-04T23:05:29.753Z,6.88
2023-04-04T23:08:01.278Z,7.18
2023-04-04T23:10:27.740Z,6.90
2023-04-04T23:12:54.031Z,7.25
2023-04-04T23:15:20.379Z,6.97
2023-04-04T23:17:46.808Z,6.53
2023-04-04T23:20:13.252Z,6.68
2023-04-04T23:22:39.618Z,6.88
2023-04-04T23:25:07.552Z,7.18
2023-04-04T23:27:34.246Z,6.90
2023-04-04T23:30:04.752Z,6.00
2023-04-04T23:32:31.649Z,6.47
2023-04-04T23:34:57.985Z,7.10
2023-04-04T23:37:24.365Z,6.50
2023-04-04T23:39:50.942Z,6.95
2023-04-04T23:42:17.344Z,6.50
2023-04-04T23:44:43.761Z,6.30
2023-04-04T23:47:10.856Z,6.60
2023-04-04T23:49:37.472Z,6.10
2023-04-04T23:52:05.231Z,6.53
2023-04-04T23:54:31.604Z,6.70
2023-04-04T23:56:58.339Z,6.40
2023-04-04T23:59:24.779Z,6.30
